Portada
METAR-TAF:

METAR-TAF

Aeroports :

Nanquín, Xina

latitud: 32-00N, longitud: 118-48E, altitud: 12 m

Observació

L'informe es va fer fa 40 minuts, a les 03:00 UTC
Vent 2 kt amb direcció variable
Temperatura 10°C
Humitat 53%
Pressió 1034 hPa
Visibilitat: 6000 m

METAR: ZSNJ 070300Z VRB01MPS 6000 NSC 10/01 Q1034 NOSIG

Hora: 11:40 (03:40 UTC)

Pronòstic

L'informe es va fer fa 8 hores i 38 minuts, a les 19:02 UTC
Pronòstic vàlid del 07 a les 00 UTC al 07 a les 24 UTC
Vent 6 kt del Est
Visibilitat: 3000 m
calitja

TAF: ZSNJ 061902Z 0700/0724 09003MPS 3000 HZ NSC TX11/0706Z TNM01/22Z

Observacions i pronòstics meteorològics de més de 4000 aeroports (METAR i TAF).

Les estacions disponibles són els punts grocs i vermells al mapa.

Posi el ratolí al punt desitjat per veure el nom de l'estació.

Feu clic per veure les observacions i els pronòstics meteorològics.

Per canviar el mapa: feu clic els botons verds amb una creu de color negre per apropar; al botó verd amb un guió per allunyar la imatge; o en les fletxes verdes per a mapes adjacents.


METAR-TAF: